KHKA/HKA METAR and TAF weather

Enter ICAO airport designator
Station Type Date Time Source
KHKA METAR 2020/09/18 22:53 UTC NOAA

KHKA 182253Z AUTO 03010KT 10SM CLR 23/12 A3015 RMK AO2 SLP206 T02280122 $


Station Type Date Time Source
KHKA Decoded METAR 2020/09/18 22:53 UTC NOAA

BLYTHEVILLE MUNICIPAL AIRPORT , AR, United States (KHKA) 35-56N 89-50W 78M
Sep 18, 2020 - 06:53 PM EDT / 2020.09.18 2253 UTC
Wind: from the NNE (030 degrees) at 12 MPH (10 KT):0
Visibility: 10 mile(s):0
Sky conditions: clear
Temperature: 73.0 F (22.8 C)
Dew Point: 54.0 F (12.2 C)
Relative Humidity: 51%
Pressure (altimeter): 30.15 in. Hg (1020 hPa)
ob: KHKA 182253Z AUTO 03010KT 10SM CLR 23/12 A3015 RMK AO2 SLP206 T02280122
cycle: 23

Station Type Date Time Source
KHKA TAF UTC NOAA

Error!

Example: see airport list